Tilley, Canada
Current Conditions -  °F | °C
As of 9:00 AM on Friday 21 Nov 2014 (Local Time) from CYXH Reporting Station
Broken Clouds Broken Clouds  
Wind Chill: 28°   Ceiling: 25000
Heat Index: 34°   Visibility: 30mi
Dew Point: 28°   Wind: 7mph
Humidity: 81%   Direction: 200°SSW
Pressure: 29.62"   Gusts: NA
Location:  50.45°N, 111.65°W
Report Text: CYXH 211600Z 20006KT 30SM BKN250 01/M02 A2962 RMK CI5 SLP052
Loading
Personal Weather Stations






























Interactive Weather Map New forecast layout! Learn more

10-Day Weather Forecast

Advertisements
Track Severe Weather on mobile